Time;durP1;ratioP1;P1;durP2;ratioP2;P2;SDS_P1;SDS_P2;PMS_P1;PMS_P2;Temp;Humidity;BMP_temperature;BMP_pressure;BME280_temperature;BME280_humidity;BME280_pressure;Samples;Min_cycle;Max_cycle;Signal;HPM_P1;HPM_P2
2022/11/03 00:02:02;;;;;;;11.77;3.37;;;;;;;;;;5324774;27;20329;-70
2022/11/03 00:04:27;;;;;;;14.77;3.97;;;;;;;;;;5325212;27;20011;-70
2022/11/03 00:06:52;;;;;;;;;;;;;;;;;;5327564;27;20379;-70
2022/11/03 00:09:18;;;;;;;18.25;3.65;;;;;;;;;;5325987;27;19928;-70
2022/11/03 00:11:43;;;;;;;;;;;;;;;;;;5324627;27;20138;-69
2022/11/03 00:14:09;;;;;;;15.40;3.92;;;;;;;;;;5324984;27;20011;-71
2022/11/03 00:16:34;;;;;;;;;;;;;;;;;;5327971;27;20000;-69
2022/11/03 00:18:59;;;;;;;23.42;5.05;;;;;;;;;;5306858;27;19970;-69
2022/11/03 00:21:24;;;;;;;;;;;;;;;;;;5326046;27;20039;-68
2022/11/03 00:23:50;;;;;;;12.35;4.28;;;;;;;;;;5324673;27;19928;-69
2022/11/03 00:26:23;;;;;;;12.25;3.22;;;;;;;;;;5325302;27;20016;-69
2022/11/03 00:28:49;;;;;;;15.55;3.40;;;;;;;;;;5327330;27;20033;-70
2022/11/03 00:31:16;;;;;;;13.35;3.08;;;;;;;;;;5327468;27;20004;-70
2022/11/03 00:33:42;;;;;;;17.42;3.35;;;;;;;;;;5328422;27;20000;-71
2022/11/03 00:36:07;;;;;;;;;;;;;;;;;;5309030;27;20022;-70
2022/11/03 00:38:33;;;;;;;14.25;4.43;;;;;;;;;;5306654;27;19934;-70
2022/11/03 00:40:58;;;;;;;;;;;;;;;;;;5306236;27;20032;-69
2022/11/03 00:43:24;;;;;;;15.73;3.50;;;;;;;;;;5305670;27;20262;-70
2022/11/03 00:45:49;;;;;;;20.73;3.80;;;;;;;;;;5325381;27;20070;-71
2022/11/03 00:48:29;;;;;;;15.63;3.30;;;;;;;;;;5327611;27;20008;-71
2022/11/03 00:51:00;;;;;;;19.98;4.22;;;;;;;;;;5326712;27;20101;-70
2022/11/03 00:53:26;;;;;;;15.00;3.47;;;;;;;;;;5325603;27;20001;-71
2022/11/03 00:55:51;;;;;;;;;;;;;;;;;;5327622;27;20306;-71
2022/11/03 00:58:16;;;;;;;22.98;4.43;;;;;;;;;;5327750;27;19932;-71
2022/11/03 01:00:41;;;;;;;17.17;3.50;;;;;;;;;;5328136;27;20045;-70
2022/11/03 01:03:06;;;;;;;21.80;3.65;;;;;;;;;;5326376;27;20413;-72
2022/11/03 01:08:15;;;;;;;17.33;3.70;;;;;;;;;;5327518;27;20424;-70
2022/11/03 01:11:42;;;;;;;;;;;;;;;;;;5327259;27;20001;-70
2022/11/03 01:13:26;;;;;;;17.08;3.60;;;;;;;;;;5326442;27;19953;-71
2022/11/03 01:15:51;;;;;;;;;;;;;;;;;;5327876;27;20004;-69
2022/11/03 01:18:16;;;;;;;16.05;3.65;;;;;;;;;;5306380;27;19928;-71
2022/11/03 01:20:41;;;;;;;;;;;;;;;;;;5328563;27;20028;-70
2022/11/03 01:23:06;;;;;;;16.00;4.60;;;;;;;;;;5325953;27;19969;-71
2022/11/03 01:25:34;;;;;;;21.98;4.47;;;;;;;;;;5325143;27;20004;-69
2022/11/03 01:28:00;;;;;;;14.25;3.33;;;;;;;;;;5306134;27;20107;-69
2022/11/03 01:30:26;;;;;;;16.27;4.12;;;;;;;;;;5325930;27;20015;-70
2022/11/03 01:32:51;;;;;;;;;;;;;;;;;;5326607;27;20001;-70
2022/11/03 01:35:16;;;;;;;17.73;3.97;;;;;;;;;;5325970;27;19973;-70
2022/11/03 01:37:41;;;;;;;20.92;3.72;;;;;;;;;;5326706;26;20034;-72
2022/11/03 01:40:06;;;;;;;;;;;;;;;;;;5329272;27;20155;-73
2022/11/03 01:42:31;;;;;;;11.75;2.90;;;;;;;;;;5326343;27;19972;-73
2022/11/03 01:44:56;;;;;;;12.73;3.20;;;;;;;;;;5328222;27;20048;-72
2022/11/03 01:47:22;;;;;;;;;;;;;;;;;;5328781;27;20008;-72
2022/11/03 01:49:48;;;;;;;19.02;3.33;;;;;;;;;;5328591;27;19927;-72
2022/11/03 01:52:17;;;;;;;15.02;3.40;;;;;;;;;;5328381;27;20133;-72
2022/11/03 01:54:43;;;;;;;15.27;3.22;;;;;;;;;;5325162;27;20000;-72
2022/11/03 01:57:12;;;;;;;20.58;4.62;;;;;;;;;;5327411;27;20012;-72
2022/11/03 01:59:38;;;;;;;16.58;3.17;;;;;;;;;;5326917;27;20032;-71
2022/11/03 02:02:03;;;;;;;15.63;3.17;;;;;;;;;;5327343;27;20307;-71
2022/11/03 02:04:28;;;;;;;;;;;;;;;;;;5326602;27;20011;-71
2022/11/03 02:06:58;;;;;;;15.65;3.28;;;;;;;;;;5304238;27;20335;-70
2022/11/03 02:09:24;;;;;;;12.48;3.65;;;;;;;;;;5325231;27;20379;-71
2022/11/03 02:12:07;;;;;;;;;;;;;;;;;;5326695;27;20030;-73
2022/11/03 02:14:34;;;;;;;16.02;3.42;;;;;;;;;;5328159;27;19935;-71
2022/11/03 02:17:02;;;;;;;19.42;4.60;;;;;;;;;;5328459;27;20049;-71
2022/11/03 02:19:38;;;;;;;15.15;3.92;;;;;;;;;;5325639;27;20088;-71
2022/11/03 02:22:09;;;;;;;14.48;4.32;;;;;;;;;;5328049;27;20050;-70
2022/11/03 02:24:51;;;;;;;16.37;4.30;;;;;;;;;;5305330;27;20001;-71
2022/11/03 02:27:16;;;;;;;25.70;3.80;;;;;;;;;;5325892;27;20023;-70
2022/11/03 02:29:41;;;;;;;;;;;;;;;;;;5326095;27;20017;-71
2022/11/03 02:32:10;;;;;;;19.27;3.60;;;;;;;;;;5327705;27;19955;-71
2022/11/03 02:34:42;;;;;;;18.65;2.80;;;;;;;;;;5325177;27;20013;-71
2022/11/03 02:37:10;;;;;;;18.50;4.05;;;;;;;;;;5325515;27;20012;-71
2022/11/03 02:39:51;;;;;;;15.57;3.08;;;;;;;;;;5327763;26;20071;-71
2022/11/03 02:42:17;;;;;;;17.33;4.15;;;;;;;;;;5327978;27;20046;-72
2022/11/03 02:44:43;;;;;;;19.20;3.83;;;;;;;;;;5305267;27;20038;-71
2022/11/03 02:47:08;;;;;;;;;;;;;;;;;;5326233;27;20401;-72
2022/11/03 02:49:38;;;;;;;17.42;4.10;;;;;;;;;;5325779;27;20290;-72
2022/11/03 02:52:04;;;;;;;17.15;3.05;;;;;;;;;;5327806;27;20014;-72
2022/11/03 02:54:35;;;;;;;15.45;3.17;;;;;;;;;;5327167;27;20407;-72
2022/11/03 02:57:15;;;;;;;22.08;4.28;;;;;;;;;;5327505;27;19989;-71
2022/11/03 02:59:53;;;;;;;13.30;3.90;;;;;;;;;;5327546;27;20019;-71
2022/11/03 03:02:21;;;;;;;20.95;3.67;;;;;;;;;;5325644;27;20012;-71
2022/11/03 03:04:52;;;;;;;16.40;3.72;;;;;;;;;;5327997;27;20024;-71
2022/11/03 03:07:29;;;;;;;14.80;3.22;;;;;;;;;;5328063;27;20005;-70
2022/11/03 03:10:00;;;;;;;17.70;3.45;;;;;;;;;;5327988;27;19993;-70
2022/11/03 03:12:26;;;;;;;15.45;3.65;;;;;;;;;;5325575;27;20004;-70
2022/11/03 03:14:52;;;;;;;22.25;3.40;;;;;;;;;;5327672;27;20015;-71
2022/11/03 03:17:24;;;;;;;22.90;4.00;;;;;;;;;;5327653;27;20028;-71
2022/11/03 03:19:57;;;;;;;17.10;3.83;;;;;;;;;;5307606;27;20008;-71
2022/11/03 03:22:26;;;;;;;12.43;3.30;;;;;;;;;;5327813;27;19993;-70
2022/11/03 03:24:54;;;;;;;12.82;3.15;;;;;;;;;;5324804;27;20008;-71
2022/11/03 03:27:22;;;;;;;16.23;3.65;;;;;;;;;;5327705;27;20004;-71
2022/11/03 03:29:50;;;;;;;19.23;4.60;;;;;;;;;;5327725;27;20091;-70
2022/11/03 03:32:17;;;;;;;18.35;4.07;;;;;;;;;;5324911;27;20116;-71
2022/11/03 03:34:44;;;;;;;17.45;4.47;;;;;;;;;;5307611;27;20299;-70
2022/11/03 03:37:10;;;;;;;21.55;3.62;;;;;;;;;;5305354;27;20005;-71
2022/11/03 03:39:37;;;;;;;16.50;3.85;;;;;;;;;;5326079;26;20020;-71
2022/11/03 03:42:03;;;;;;;15.60;4.75;;;;;;;;;;5325772;27;20078;-72
2022/11/03 03:44:29;;;;;;;21.00;3.67;;;;;;;;;;5327915;27;20035;-71
2022/11/03 03:46:54;;;;;;;;;;;;;;;;;;5328275;27;20328;-71
2022/11/03 03:49:19;;;;;;;21.25;4.15;;;;;;;;;;5325739;27;19932;-72
2022/11/03 03:51:45;;;;;;;21.02;4.22;;;;;;;;;;5326611;27;20015;-71
2022/11/03 03:54:10;;;;;;;;;;;;;;;;;;5325528;27;20019;-72
2022/11/03 03:56:39;;;;;;;20.37;4.20;;;;;;;;;;5326156;27;19928;-72
2022/11/03 03:59:04;;;;;;;16.55;3.55;;;;;;;;;;5326111;27;20019;-71
2022/11/03 04:01:30;;;;;;;;;;;;;;;;;;5325600;27;20001;-72
2022/11/03 04:03:55;;;;;;;17.23;4.30;;;;;;;;;;5325253;27;19932;-71
2022/11/03 04:06:20;;;;;;;16.25;3.95;;;;;;;;;;5326585;27;20000;-72
2022/11/03 04:08:45;;;;;;;;;;;;;;;;;;5326981;27;20000;-72
2022/11/03 04:22:15;;;;;;;23.17;3.80;;;;;;;;;;5329035;27;20007;-71
2022/11/03 04:24:41;;;;;;;15.00;4.57;;;;;;;;;;5329134;27;20001;-72
2022/11/03 04:27:06;;;;;;;;;;;;;;;;;;5326907;27;20012;-71
2022/11/03 04:29:31;;;;;;;14.87;4.28;;;;;;;;;;5326278;27;19923;-70
2022/11/03 04:31:56;;;;;;;14.18;3.33;;;;;;;;;;5328757;27;20037;-71
2022/11/03 04:34:23;;;;;;;18.45;5.30;;;;;;;;;;5327229;27;20000;-69
2022/11/03 04:36:48;;;;;;;17.05;3.90;;;;;;;;;;5326735;27;20029;-70
2022/11/03 04:39:14;;;;;;;;;;;;;;;;;;5327987;26;20025;-70
2022/11/03 04:41:39;;;;;;;18.17;3.90;;;;;;;;;;5328567;27;19928;-70
2022/11/03 04:44:04;;;;;;;;;;;;;;;;;;5329547;27;20143;-70
2022/11/03 04:46:29;;;;;;;14.45;4.35;;;;;;;;;;5327637;27;19939;-70
2022/11/03 04:48:59;;;;;;;14.15;3.65;;;;;;;;;;5329724;27;20005;-70
2022/11/03 04:51:26;;;;;;;18.15;4.47;;;;;;;;;;5329728;27;20009;-70
2022/11/03 04:53:53;;;;;;;14.87;3.42;;;;;;;;;;5330468;27;20005;-70
2022/11/03 04:56:19;;;;;;;15.65;4.22;;;;;;;;;;5328776;27;20036;-71
2022/11/03 04:58:47;;;;;;;15.65;3.92;;;;;;;;;;5326709;27;20038;-71
2022/11/03 05:01:12;;;;;;;23.33;4.75;;;;;;;;;;5328579;27;19997;-70
2022/11/03 05:03:37;;;;;;;;;;;;;;;;;;5306531;27;20426;-70
2022/11/03 05:06:29;;;;;;;18.80;3.87;;;;;;;;;;5327796;27;20305;-69
2022/11/03 05:08:57;;;;;;;18.73;4.15;;;;;;;;;;5323411;27;20004;-70
2022/11/03 05:11:28;;;;;;;17.80;3.45;;;;;;;;;;5306075;27;20458;-69
2022/11/03 05:13:57;;;;;;;16.30;3.92;;;;;;;;;;5328778;27;20003;-70
2022/11/03 05:16:23;;;;;;;13.77;3.87;;;;;;;;;;5325404;27;20023;-70
2022/11/03 05:18:48;;;;;;;15.93;3.65;;;;;;;;;;5328092;27;20028;-72
2022/11/03 05:21:14;;;;;;;;;;;;;;;;;;5327967;27;20011;-70
2022/11/03 05:23:40;;;;;;;11.00;3.40;;;;;;;;;;5328292;27;19927;-71
2022/11/03 05:26:10;;;;;;;17.50;4.37;;;;;;;;;;5325465;27;20021;-70
2022/11/03 05:28:39;;;;;;;15.50;3.83;;;;;;;;;;5328086;27;20032;-72
2022/11/03 05:31:21;;;;;;;12.95;3.00;;;;;;;;;;5328584;27;20138;-71
2022/11/03 05:33:48;;;;;;;19.60;3.87;;;;;;;;;;5326292;27;20371;-72
2022/11/03 05:36:15;;;;;;;9.60;2.90;;;;;;;;;;5328145;27;20012;-70
2022/11/03 05:38:40;;;;;;;17.10;3.67;;;;;;;;;;5326239;26;20016;-71
2022/11/03 05:41:05;;;;;;;;;;;;;;;;;;5326589;27;20168;-72
2022/11/03 05:43:32;;;;;;;13.73;3.70;;;;;;;;;;5325450;27;19927;-71
2022/11/03 05:46:00;;;;;;;15.15;3.87;;;;;;;;;;5328268;27;20023;-72
2022/11/03 05:48:31;;;;;;;17.98;3.95;;;;;;;;;;5325476;27;20005;-71
2022/11/03 05:50:59;;;;;;;21.50;4.05;;;;;;;;;;5325518;27;20012;-72
2022/11/03 05:53:34;;;;;;;21.33;4.50;;;;;;;;;;5326891;27;20000;-71
2022/11/03 05:56:02;;;;;;;11.90;3.10;;;;;;;;;;5326255;27;20015;-71
2022/11/03 05:58:37;;;;;;;13.77;3.92;;;;;;;;;;5325339;27;20004;-71
2022/11/03 06:01:04;;;;;;;12.75;3.00;;;;;;;;;;5325993;27;20020;-72
2022/11/03 06:03:33;;;;;;;12.07;3.20;;;;;;;;;;5325928;27;20038;-71
2022/11/03 06:05:58;;;;;;;14.43;3.30;;;;;;;;;;5325364;27;20036;-71
2022/11/03 06:08:24;;;;;;;;;;;;;;;;;;5326500;27;20000;-73
2022/11/03 06:10:51;;;;;;;10.63;3.50;;;;;;;;;;5305552;27;19928;-73
2022/11/03 06:13:16;;;;;;;16.55;3.92;;;;;;;;;;5327996;27;20020;-72
2022/11/03 06:15:41;;;;;;;;;;;;;;;;;;5327575;27;20096;-73
2022/11/03 06:18:20;;;;;;;13.32;3.72;;;;;;;;;;5326434;27;19928;-72
2022/11/03 06:20:51;;;;;;;17.25;4.35;;;;;;;;;;5326952;27;20005;-73
2022/11/03 06:23:17;;;;;;;17.42;4.50;;;;;;;;;;5328063;27;20003;-72
2022/11/03 06:25:42;;;;;;;9.25;3.47;;;;;;;;;;5327602;27;20020;-71
2022/11/03 06:28:12;;;;;;;20.05;4.32;;;;;;;;;;5325512;27;20331;-71
2022/11/03 06:30:39;;;;;;;12.82;3.58;;;;;;;;;;5325295;27;20003;-71
2022/11/03 06:33:40;;;;;;;17.08;4.53;;;;;;;;;;5324919;27;20038;-70
2022/11/03 06:36:12;;;;;;;15.95;4.30;;;;;;;;;;5214252;27;20047;-72
2022/11/03 06:38:37;;;;;;;17.92;4.12;;;;;;;;;;5306781;26;20057;-72
2022/11/03 06:41:02;;;;;;;15.27;4.43;;;;;;;;;;5325317;27;20052;-70
2022/11/03 06:43:38;;;;;;;14.65;3.30;;;;;;;;;;5326110;27;20028;-75
2022/11/03 06:46:11;;;;;;;14.02;4.07;;;;;;;;;;5326898;27;20009;-71
2022/11/03 06:48:37;;;;;;;20.80;4.32;;;;;;;;;;5327384;27;20302;-71
2022/11/03 06:51:13;;;;;;;15.05;4.15;;;;;;;;;;5326062;27;20005;-71
2022/11/03 06:53:38;;;;;;;15.77;4.10;;;;;;;;;;5324760;27;20085;-73
2022/11/03 06:56:07;;;;;;;13.27;4.32;;;;;;;;;;5326708;27;20030;-71
2022/11/03 06:58:37;;;;;;;22.48;4.28;;;;;;;;;;5325890;27;20035;-71
2022/11/03 07:01:08;;;;;;;14.07;3.47;;;;;;;;;;5325907;27;20134;-71
2022/11/03 07:03:36;;;;;;;11.57;4.07;;;;;;;;;;5326491;27;20003;-72
2022/11/03 07:06:11;;;;;;;17.50;4.15;;;;;;;;;;5324488;27;20044;-71
2022/11/03 07:08:47;;;;;;;13.35;3.78;;;;;;;;;;5327134;27;19988;-71
2022/11/03 07:11:19;;;;;;;16.27;3.47;;;;;;;;;;5324073;27;20016;-71
2022/11/03 07:13:46;;;;;;;12.80;3.40;;;;;;;;;;5327183;27;20001;-71
2022/11/03 07:16:12;;;;;;;17.27;5.37;;;;;;;;;;5327180;27;20004;-73
2022/11/03 07:18:41;;;;;;;13.45;4.12;;;;;;;;;;5324795;27;20031;-72
2022/11/03 07:21:23;;;;;;;93.78;11.70;;;;;;;;;;5324877;27;20340;-72
2022/11/03 07:23:48;;;;;;;49.53;9.18;;;;;;;;;;5306942;27;20024;-73
2022/11/03 07:26:13;;;;;;;15.75;3.87;;;;;;;;;;5304467;27;20344;-73
2022/11/03 07:28:39;;;;;;;15.95;3.78;;;;;;;;;;5324806;27;20055;-71
2022/11/03 07:31:21;;;;;;;14.90;4.03;;;;;;;;;;5327644;27;20008;-72
2022/11/03 07:33:46;;;;;;;17.95;3.97;;;;;;;;;;5325327;27;20009;-73
2022/11/03 07:36:11;;;;;;;;;;;;;;;;;;5326764;27;20320;-72
2022/11/03 07:38:37;;;;;;;59.45;9.82;;;;;;;;;;5325621;26;19931;-72
2022/11/03 07:41:02;;;;;;;;;;;;;;;;;;5324619;27;20520;-72
2022/11/03 07:43:30;;;;;;;21.23;4.10;;;;;;;;;;5305603;27;19972;-72
2022/11/03 07:45:57;;;;;;;162.48;19.73;;;;;;;;;;5325802;27;20341;-71
2022/11/03 07:48:27;;;;;;;233.25;25.60;;;;;;;;;;5328318;27;20014;-70
2022/11/03 07:50:53;;;;;;;22.08;4.50;;;;;;;;;;5328408;27;20015;-73
2022/11/03 07:53:20;;;;;;;13.10;4.40;;;;;;;;;;5328120;27;20012;-72
2022/11/03 07:55:46;;;;;;;16.62;3.92;;;;;;;;;;5325245;27;20394;-72
2022/11/03 07:58:11;;;;;;;;;;;;;;;;;;5306539;27;20001;-71
2022/11/03 08:00:36;;;;;;;14.05;4.32;;;;;;;;;;5325543;27;20305;-71
2022/11/03 08:03:01;;;;;;;17.83;3.90;;;;;;;;;;5325881;27;20001;-72
2022/11/03 08:05:26;;;;;;;17.02;4.85;;;;;;;;;;5305435;27;20279;-73
2022/11/03 08:07:51;;;;;;;15.53;3.47;;;;;;;;;;5307953;27;20034;-71
2022/11/03 08:10:16;;;;;;;17.08;4.35;;;;;;;;;;5328376;27;20484;-72
2022/11/03 08:12:42;;;;;;;14.68;3.37;;;;;;;;;;5325632;27;20001;-71
2022/11/03 08:15:07;;;;;;;28.17;4.30;;;;;;;;;;5326435;27;20404;-71
2022/11/03 08:17:32;;;;;;;16.80;4.00;;;;;;;;;;5326155;27;20001;-72
2022/11/03 08:19:57;;;;;;;;;;;;;;;;;;5328362;27;20028;-72
2022/11/03 08:22:24;;;;;;;17.42;3.80;;;;;;;;;;5307244;27;20033;-72
2022/11/03 08:24:50;;;;;;;15.07;4.60;;;;;;;;;;5305489;27;20322;-72
2022/11/03 08:27:15;;;;;;;14.48;3.62;;;;;;;;;;5327545;27;20000;-71
2022/11/03 08:29:40;;;;;;;17.83;4.00;;;;;;;;;;5306552;27;20000;-71
2022/11/03 08:32:05;;;;;;;13.05;3.97;;;;;;;;;;5305266;27;20379;-72
2022/11/03 08:34:30;;;;;;;13.43;3.65;;;;;;;;;;5304999;27;20096;-72
2022/11/03 08:36:56;;;;;;;16.42;4.37;;;;;;;;;;5327948;27;20000;-72
2022/11/03 08:39:21;;;;;;;24.50;4.07;;;;;;;;;;5326020;26;20017;-72
2022/11/03 08:41:46;;;;;;;15.05;4.30;;;;;;;;;;5307345;27;20012;-71
2022/11/03 08:44:12;;;;;;;17.52;4.12;;;;;;;;;;5326588;27;20000;-72
2022/11/03 08:46:37;;;;;;;18.83;3.85;;;;;;;;;;5325326;27;20031;-72
2022/11/03 08:49:02;;;;;;;14.80;4.00;;;;;;;;;;5305613;27;20096;-71
2022/11/03 08:51:27;;;;;;;15.93;3.67;;;;;;;;;;5328334;27;20029;-72
2022/11/03 08:53:55;;;;;;;16.60;3.87;;;;;;;;;;5325717;27;20001;-73
2022/11/03 08:56:20;;;;;;;18.33;3.55;;;;;;;;;;5326747;27;20400;-71
2022/11/03 08:58:46;;;;;;;14.40;5.20;;;;;;;;;;5305592;27;20001;-72
2022/11/03 09:01:11;;;;;;;;;;;;;;;;;;5328027;27;20001;-72
2022/11/03 09:03:37;;;;;;;13.85;3.78;;;;;;;;;;5327896;27;19976;-71
2022/11/03 09:06:02;;;;;;;14.73;4.93;;;;;;;;;;5327584;27;20334;-70
2022/11/03 09:08:27;;;;;;;12.45;3.47;;;;;;;;;;5325549;27;20027;-72
2022/11/03 09:10:52;;;;;;;19.95;4.15;;;;;;;;;;5305720;27;19998;-72
2022/11/03 09:13:17;;;;;;;15.77;3.45;;;;;;;;;;5327475;27;20142;-73
2022/11/03 09:15:43;;;;;;;13.00;3.78;;;;;;;;;;5327585;27;20012;-72
2022/11/03 09:18:08;;;;;;;14.27;3.83;;;;;;;;;;5325465;27;20033;-73
2022/11/03 09:20:33;;;;;;;;;;;;;;;;;;5308331;27;20008;-72
2022/11/03 09:22:59;;;;;;;16.33;4.00;;;;;;;;;;5328131;27;19954;-71
2022/11/03 09:25:24;;;;;;;15.05;3.70;;;;;;;;;;5326503;27;20020;-71
2022/11/03 09:27:49;;;;;;;16.50;3.72;;;;;;;;;;5326205;27;19997;-72
2022/11/03 09:30:14;;;;;;;12.65;3.67;;;;;;;;;;5325642;27;20000;-72
2022/11/03 09:32:40;;;;;;;11.57;4.10;;;;;;;;;;5325144;27;20001;-73
2022/11/03 09:35:05;;;;;;;13.40;3.25;;;;;;;;;;5326672;27;20000;-72
2022/11/03 09:37:30;;;;;;;13.85;3.50;;;;;;;;;;5327854;27;20404;-72
2022/11/03 09:39:56;;;;;;;13.68;4.25;;;;;;;;;;5324885;26;20050;-72
2022/11/03 09:42:22;;;;;;;13.65;4.78;;;;;;;;;;5324966;27;20011;-72
2022/11/03 09:44:49;;;;;;;9.52;3.50;;;;;;;;;;5327308;27;20060;-71
2022/11/03 09:47:21;;;;;;;11.90;2.70;;;;;;;;;;5304974;27;20009;-71
2022/11/03 09:49:46;;;;;;;14.52;3.15;;;;;;;;;;5327751;27;20018;-71
2022/11/03 09:52:13;;;;;;;13.00;4.07;;;;;;;;;;5327026;27;20001;-72
2022/11/03 09:54:38;;;;;;;15.60;3.47;;;;;;;;;;5327145;27;20032;-71
2022/11/03 09:57:11;;;;;;;15.38;3.22;;;;;;;;;;5325092;27;20015;-72
2022/11/03 09:59:37;;;;;;;13.23;3.00;;;;;;;;;;5324514;27;20004;-72
2022/11/03 10:02:02;;;;;;;13.60;3.53;;;;;;;;;;5304972;27;20416;-73
2022/11/03 10:04:28;;;;;;;13.77;3.20;;;;;;;;;;5303931;27;20033;-72
2022/11/03 10:06:53;;;;;;;14.00;3.22;;;;;;;;;;5325896;27;19997;-72
2022/11/03 10:09:19;;;;;;;13.07;4.43;;;;;;;;;;5325804;27;20387;-72
2022/11/03 10:11:45;;;;;;;13.93;3.15;;;;;;;;;;5324330;27;20016;-71
2022/11/03 10:14:12;;;;;;;16.25;3.33;;;;;;;;;;5327001;27;20331;-72
2022/11/03 10:16:39;;;;;;;9.98;3.03;;;;;;;;;;5326115;27;20009;-71
2022/11/03 10:19:04;;;;;;;19.50;3.70;;;;;;;;;;5327416;27;20005;-72
2022/11/03 10:21:30;;;;;;;12.25;3.00;;;;;;;;;;5326724;27;20011;-73
2022/11/03 10:23:55;;;;;;;12.18;3.50;;;;;;;;;;5304703;27;20005;-72
2022/11/03 10:26:21;;;;;;;10.05;3.37;;;;;;;;;;5303675;27;20063;-72
2022/11/03 10:29:07;;;;;;;14.87;3.87;;;;;;;;;;5305823;27;20019;-71
2022/11/03 10:31:33;;;;;;;14.25;3.05;;;;;;;;;;5323901;27;20008;-72
2022/11/03 10:33:58;;;;;;;11.02;3.40;;;;;;;;;;5326233;27;20089;-72
2022/11/03 10:36:23;;;;;;;9.68;2.67;;;;;;;;;;5307142;27;20001;-73
2022/11/03 10:38:48;;;;;;;11.57;3.22;;;;;;;;;;5324590;26;20066;-72
2022/11/03 10:41:15;;;;;;;11.60;3.70;;;;;;;;;;5327693;27;20012;-71
2022/11/03 10:43:41;;;;;;;9.65;3.65;;;;;;;;;;5327270;27;20020;-72
2022/11/03 10:46:20;;;;;;;10.10;3.10;;;;;;;;;;5324236;27;20086;-72
2022/11/03 10:49:00;;;;;;;11.63;3.03;;;;;;;;;;5326923;27;20005;-72
2022/11/03 10:51:25;;;;;;;9.80;2.95;;;;;;;;;;5325109;27;20011;-73
2022/11/03 10:53:50;;;;;;;10.68;2.97;;;;;;;;;;5325566;27;20077;-72
2022/11/03 10:56:16;;;;;;;10.27;2.95;;;;;;;;;;5325093;27;20048;-72
2022/11/03 10:58:41;;;;;;;9.70;2.83;;;;;;;;;;5327086;27;20036;-72
2022/11/03 11:01:08;;;;;;;16.90;3.05;;;;;;;;;;5325120;27;20006;-71
2022/11/03 11:03:33;;;;;;;7.70;2.60;;;;;;;;;;5306876;27;20016;-73
2022/11/03 11:05:59;;;;;;;12.20;2.90;;;;;;;;;;5323685;27;20365;-73
2022/11/03 11:08:24;;;;;;;15.05;3.80;;;;;;;;;;5307390;27;20007;-73
2022/11/03 11:10:49;;;;;;;11.40;3.72;;;;;;;;;;5325663;27;20390;-72
2022/11/03 11:13:17;;;;;;;9.50;3.00;;;;;;;;;;5325162;27;20031;-72
2022/11/03 11:15:47;;;;;;;9.55;2.70;;;;;;;;;;5304784;27;20034;-72
2022/11/03 11:18:38;;;;;;;12.23;3.67;;;;;;;;;;5324126;27;20005;-72
2022/11/03 11:21:19;;;;;;;9.77;3.28;;;;;;;;;;5281936;27;20399;-72
2022/11/03 11:23:45;;;;;;;8.68;2.92;;;;;;;;;;5325240;27;20063;-72
2022/11/03 11:26:25;;;;;;;9.75;2.35;;;;;;;;;;5323782;27;20016;-71
2022/11/03 11:29:09;;;;;;;8.70;2.92;;;;;;;;;;5325202;27;20001;-72
2022/11/03 11:31:34;;;;;;;10.55;2.60;;;;;;;;;;5302381;27;20016;-72
2022/11/03 11:34:08;;;;;;;13.55;3.03;;;;;;;;;;5267202;27;20049;-71
2022/11/03 11:36:37;;;;;;;12.07;3.12;;;;;;;;;;5255711;27;20013;-72
2022/11/03 11:39:03;;;;;;;9.73;2.97;;;;;;;;;;5253116;27;20049;-71
2022/11/03 11:41:47;;;;;;;8.02;2.40;;;;;;;;;;5258645;27;20097;-72
2022/11/03 11:44:31;;;;;;;10.93;2.92;;;;;;;;;;5259090;27;20017;-71
2022/11/03 11:46:57;;;;;;;8.93;4.20;;;;;;;;;;5260029;27;20005;-72
2022/11/03 11:49:22;;;;;;;12.00;2.70;;;;;;;;;;5260067;27;20021;-72
2022/11/03 11:51:47;;;;;;;10.98;2.80;;;;;;;;;;5257497;27;20044;-72
2022/11/03 11:54:15;;;;;;;13.55;2.90;;;;;;;;;;5258684;27;20010;-73
2022/11/03 11:56:42;;;;;;;10.95;2.35;;;;;;;;;;5238489;27;20447;-73
2022/11/03 11:59:14;;;;;;;6.93;2.50;;;;;;;;;;5261029;27;20006;-73
2022/11/03 12:01:40;;;;;;;8.93;3.05;;;;;;;;;;5260285;27;20013;-70
2022/11/03 12:04:06;;;;;;;8.77;2.58;;;;;;;;;;5258150;27;20349;-70
2022/11/03 12:06:36;;;;;;;8.40;2.65;;;;;;;;;;5241984;27;20002;-71
2022/11/03 12:09:05;;;;;;;8.57;2.70;;;;;;;;;;5259418;27;20006;-72
2022/11/03 12:11:43;;;;;;;9.25;2.53;;;;;;;;;;5257117;27;20013;-72
2022/11/03 12:14:27;;;;;;;9.18;2.55;;;;;;;;;;5257072;27;20029;-73
2022/11/03 12:16:52;;;;;;;9.90;4.03;;;;;;;;;;5258776;27;20002;-71
2022/11/03 12:19:33;;;;;;;8.50;3.12;;;;;;;;;;5261221;27;20038;-71
2022/11/03 12:21:58;;;;;;;10.50;2.87;;;;;;;;;;5260950;27;20030;-71
2022/11/03 12:24:24;;;;;;;11.32;2.72;;;;;;;;;;5258569;27;20020;-72
2022/11/03 12:26:50;;;;;;;7.10;2.28;;;;;;;;;;5258646;27;20010;-72
2022/11/03 12:29:15;;;;;;;6.82;3.28;;;;;;;;;;5259572;27;20029;-71
2022/11/03 12:31:40;;;;;;;10.02;2.40;;;;;;;;;;5259088;27;20029;-72
2022/11/03 12:34:05;;;;;;;6.43;2.50;;;;;;;;;;5259284;27;20149;-72
2022/11/03 12:36:30;;;;;;;9.23;2.80;;;;;;;;;;5259651;27;20017;-71
2022/11/03 12:38:55;;;;;;;10.05;2.92;;;;;;;;;;5258667;27;20033;-71
2022/11/03 12:41:21;;;;;;;11.02;2.70;;;;;;;;;;5258041;27;20052;-72
2022/11/03 12:43:47;;;;;;;7.05;2.97;;;;;;;;;;5262235;27;20107;-72
2022/11/03 12:46:12;;;;;;;7.45;2.42;;;;;;;;;;5261357;27;20415;-71
2022/11/03 12:48:42;;;;;;;5.65;2.17;;;;;;;;;;5260580;27;20025;-72
2022/11/03 12:51:07;;;;;;;16.58;2.40;;;;;;;;;;5260803;27;19998;-73
2022/11/03 12:53:33;;;;;;;7.28;2.25;;;;;;;;;;5258397;27;20151;-72
2022/11/03 12:55:58;;;;;;;9.93;2.78;;;;;;;;;;5259686;27;20380;-71
2022/11/03 12:58:23;;;;;;;8.17;2.27;;;;;;;;;;5258074;27;20300;-71
2022/11/03 13:00:48;;;;;;;6.05;2.30;;;;;;;;;;5260074;27;20121;-72
2022/11/03 13:03:13;;;;;;;8.17;2.23;;;;;;;;;;5258944;27;20316;-73
2022/11/03 13:05:38;;;;;;;10.18;2.58;;;;;;;;;;5260840;27;20112;-72
2022/11/03 13:08:04;;;;;;;7.78;2.33;;;;;;;;;;5238695;27;20361;-72
2022/11/03 13:10:29;;;;;;;8.20;2.00;;;;;;;;;;5259697;27;20002;-72
2022/11/03 13:12:54;;;;;;;6.53;2.67;;;;;;;;;;5261859;27;20282;-71
2022/11/03 13:15:19;;;;;;;10.40;2.87;;;;;;;;;;5259332;27;20094;-71
2022/11/03 13:17:45;;;;;;;9.18;2.70;;;;;;;;;;5260150;27;20102;-72
2022/11/03 13:20:13;;;;;;;8.00;2.62;;;;;;;;;;5260676;27;20045;-72
2022/11/03 13:22:38;;;;;;;6.45;2.45;;;;;;;;;;5237716;27;20001;-72
2022/11/03 13:25:03;;;;;;;5.40;2.37;;;;;;;;;;5259034;27;20016;-72
2022/11/03 13:27:29;;;;;;;4.53;2.08;;;;;;;;;;5259110;27;20025;-72
2022/11/03 13:29:55;;;;;;;10.25;2.65;;;;;;;;;;5256619;27;20047;-71
2022/11/03 13:32:20;;;;;;;7.65;3.17;;;;;;;;;;5259080;27;20002;-71
2022/11/03 13:34:45;;;;;;;10.20;2.62;;;;;;;;;;5259540;27;20006;-72
2022/11/03 13:37:10;;;;;;;7.22;2.08;;;;;;;;;;5258061;27;20010;-73
2022/11/03 13:39:36;;;;;;;13.85;2.85;;;;;;;;;;5257527;27;20026;-72
2022/11/03 13:42:01;;;;;;;7.68;3.03;;;;;;;;;;5259831;27;20027;-71
2022/11/03 13:44:26;;;;;;;9.23;2.20;;;;;;;;;;5259499;27;20343;-71
2022/11/03 13:46:51;;;;;;;7.93;2.53;;;;;;;;;;5259895;27;20017;-72
2022/11/03 13:49:16;;;;;;;13.90;3.55;;;;;;;;;;5259749;27;20120;-71
2022/11/03 13:51:41;;;;;;;4.40;2.03;;;;;;;;;;5261019;27;20091;-71
2022/11/03 13:54:07;;;;;;;8.10;2.85;;;;;;;;;;5261301;27;20001;-72
2022/11/03 13:56:32;;;;;;;9.02;2.62;;;;;;;;;;5258942;27;20002;-71
2022/11/03 13:58:57;;;;;;;6.60;2.28;;;;;;;;;;5261724;27;20002;-71
2022/11/03 14:01:22;;;;;;;8.65;2.78;;;;;;;;;;5258483;27;20080;-71
2022/11/03 14:03:47;;;;;;;7.87;2.35;;;;;;;;;;5258687;27;20044;-71
2022/11/03 14:06:13;;;;;;;8.55;2.72;;;;;;;;;;5258639;27;20470;-72
2022/11/03 14:08:38;;;;;;;10.90;3.25;;;;;;;;;;5259134;27;20056;-72
2022/11/03 14:12:29;;;;;;;6.50;2.45;;;;;;;;;;5258870;27;20123;-70
2022/11/03 14:13:49;;;;;;;7.85;2.97;;;;;;;;;;5259176;27;20018;-71
2022/11/03 14:16:14;;;;;;;7.87;2.90;;;;;;;;;;5261425;27;20002;-69
2022/11/03 14:18:39;;;;;;;9.38;3.12;;;;;;;;;;5260032;27;20013;-72
2022/11/03 14:21:04;;;;;;;8.80;2.35;;;;;;;;;;5259722;27;20001;-71
2022/11/03 14:23:30;;;;;;;4.35;2.33;;;;;;;;;;5260478;27;20005;-71
2022/11/03 14:25:55;;;;;;;7.12;2.90;;;;;;;;;;5261414;27;20453;-71
2022/11/03 14:28:20;;;;;;;8.90;2.62;;;;;;;;;;5259896;27;19998;-72
2022/11/03 14:30:45;;;;;;;7.62;2.03;;;;;;;;;;5259273;27;20049;-71
2022/11/03 14:33:10;;;;;;;10.10;2.50;;;;;;;;;;5239026;27;20111;-71
2022/11/03 14:35:35;;;;;;;13.68;3.70;;;;;;;;;;5258518;27;20545;-71
2022/11/03 14:38:01;;;;;;;7.53;2.67;;;;;;;;;;5253971;27;20033;-71
2022/11/03 14:43:10;;;;;;;8.18;2.37;;;;;;;;;;5261112;27;20035;-72
2022/11/03 14:45:35;;;;;;;8.88;2.80;;;;;;;;;;5258884;27;20013;-71
2022/11/03 14:48:00;;;;;;;7.12;2.58;;;;;;;;;;5261085;27;20391;-71
2022/11/03 14:50:25;;;;;;;9.30;2.83;;;;;;;;;;5240197;27;20097;-71
2022/11/03 14:52:50;;;;;;;6.45;2.50;;;;;;;;;;5261096;27;20002;-71
2022/11/03 14:55:16;;;;;;;4.25;2.17;;;;;;;;;;5258660;27;20410;-71
2022/11/03 14:57:41;;;;;;;7.37;2.42;;;;;;;;;;5259947;27;20372;-71
2022/11/03 15:00:06;;;;;;;5.85;2.25;;;;;;;;;;5260111;27;20001;-71
2022/11/03 15:02:31;;;;;;;7.62;2.50;;;;;;;;;;5261264;27;20038;-71